createdAt,value
2023-01-18T00:01:14.858Z,2.90
2023-01-18T00:03:42.432Z,2.90
2023-01-18T00:06:11.388Z,2.90
2023-01-18T00:08:39.846Z,2.90
2023-01-18T00:11:09.801Z,2.80
2023-01-18T00:13:37.319Z,2.80
2023-01-18T00:16:08.733Z,2.70
2023-01-18T00:18:36.153Z,2.70
2023-01-18T00:21:05.634Z,2.60
2023-01-18T00:23:33.076Z,2.60
2023-01-18T00:26:08.735Z,2.50
2023-01-18T00:28:36.790Z,2.50
2023-01-18T00:31:16.735Z,2.50
2023-01-18T00:33:45.317Z,2.50
2023-01-18T00:36:14.565Z,2.50
2023-01-18T00:38:42.085Z,2.40
2023-01-18T00:41:09.095Z,2.40
2023-01-18T00:43:38.908Z,2.30
2023-01-18T00:46:11.830Z,2.30
2023-01-18T00:48:40.365Z,2.20
2023-01-18T00:51:12.730Z,2.20
2023-01-18T00:53:40.510Z,2.10
2023-01-18T00:56:09.119Z,2.00
2023-01-18T00:58:37.651Z,2.00
2023-01-18T01:01:06.456Z,2.00
2023-01-18T01:03:54.384Z,1.90
2023-01-18T01:06:47.156Z,1.80
2023-01-18T01:09:25.661Z,1.80
2023-01-18T01:12:11.965Z,1.70
2023-01-18T01:15:00.456Z,1.70
2023-01-18T01:17:48.285Z,1.60
2023-01-18T01:20:34.284Z,1.60
2023-01-18T01:23:31.312Z,1.60
2023-01-18T01:26:08.025Z,1.60
2023-01-18T01:28:40.103Z,1.60
2023-01-18T01:31:09.573Z,1.60
2023-01-18T01:33:37.644Z,1.60
2023-01-18T01:36:08.146Z,1.50
2023-01-18T01:38:35.690Z,1.60
2023-01-18T01:41:09.021Z,1.50
2023-01-18T01:43:40.421Z,1.50
2023-01-18T01:46:46.155Z,1.50
2023-01-18T01:49:21.174Z,1.50
2023-01-18T01:51:54.135Z,1.60
2023-01-18T01:54:32.721Z,1.60
2023-01-18T01:57:07.211Z,1.60
2023-01-18T01:59:37.906Z,1.50
2023-01-18T02:02:05.730Z,1.60
2023-01-18T02:04:34.122Z,1.60
2023-01-18T02:07:01.415Z,1.60
2023-01-18T02:09:28.601Z,1.60
2023-01-18T02:11:55.825Z,1.60
2023-01-18T02:14:27.194Z,1.60
2023-01-18T02:17:12.809Z,1.50
2023-01-18T02:19:54.850Z,1.50
2023-01-18T02:22:33.570Z,1.50
2023-01-18T02:25:28.336Z,1.50
2023-01-18T02:28:14.162Z,1.50
2023-01-18T02:31:02.902Z,1.50
2023-01-18T02:33:46.721Z,1.60
2023-01-18T02:36:31.207Z,1.60
2023-01-18T02:39:06.653Z,1.60
2023-01-18T02:42:04.366Z,1.70
2023-01-18T02:44:58.088Z,1.70
2023-01-18T02:47:26.334Z,1.70
2023-01-18T02:49:53.436Z,1.70
2023-01-18T02:52:38.632Z,1.70
2023-01-18T02:55:09.517Z,1.70
2023-01-18T02:57:36.747Z,1.80
2023-01-18T03:00:06.387Z,1.80
2023-01-18T03:02:33.667Z,1.80
2023-01-18T03:05:01.397Z,1.90
2023-01-18T03:07:35.095Z,1.90
2023-01-18T03:10:05.741Z,1.90
2023-01-18T03:12:47.940Z,1.90
2023-01-18T03:15:20.885Z,2.00
2023-01-18T03:18:03.436Z,2.00
2023-01-18T03:20:34.681Z,2.00
2023-01-18T03:23:38.734Z,2.00
2023-01-18T03:26:08.904Z,2.00
2023-01-18T03:29:12.917Z,2.00
2023-01-18T03:32:17.562Z,2.00
2023-01-18T03:34:56.820Z,2.00
2023-01-18T03:37:32.755Z,2.00
2023-01-18T03:40:04.923Z,2.00
2023-01-18T03:42:40.578Z,2.00
2023-01-18T03:45:15.812Z,2.00
2023-01-18T03:47:42.924Z,2.00
2023-01-18T03:50:10.785Z,2.10
2023-01-18T03:52:43.749Z,2.00
2023-01-18T03:55:19.396Z,2.00
2023-01-18T03:58:01.232Z,2.10
2023-01-18T04:00:31.522Z,2.10
2023-01-18T04:02:59.092Z,2.10
2023-01-18T04:05:26.680Z,2.00
2023-01-18T04:07:53.750Z,2.00
2023-01-18T04:10:21.032Z,2.10
2023-01-18T04:12:48.172Z,2.10
2023-01-18T04:15:15.472Z,2.10
2023-01-18T04:17:42.523Z,2.10
2023-01-18T04:20:10.122Z,2.10
2023-01-18T04:22:37.144Z,2.10
2023-01-18T04:25:04.297Z,2.10
2023-01-18T04:27:31.374Z,2.10
2023-01-18T04:29:58.688Z,2.10
2023-01-18T04:32:25.768Z,2.10
2023-01-18T04:34:53.544Z,2.10
2023-01-18T04:37:20.750Z,2.10
2023-01-18T04:39:47.893Z,2.10
2023-01-18T04:42:14.964Z,2.10
2023-01-18T04:44:41.886Z,2.20
2023-01-18T04:47:09.056Z,2.20
2023-01-18T04:49:36.021Z,2.20
2023-01-18T04:52:02.986Z,2.20
2023-01-18T04:54:30.548Z,2.20
2023-01-18T04:56:57.771Z,2.20
2023-01-18T04:59:24.741Z,2.20
2023-01-18T05:01:52.293Z,2.20
2023-01-18T05:04:19.329Z,2.20
2023-01-18T05:06:48.828Z,2.20
2023-01-18T05:09:15.812Z,2.20
2023-01-18T05:11:43.337Z,2.20
2023-01-18T05:14:10.308Z,2.20
2023-01-18T05:16:37.377Z,2.20
2023-01-18T05:19:04.472Z,2.10
2023-01-18T05:21:31.491Z,2.10
2023-01-18T05:23:58.493Z,2.10
2023-01-18T05:26:25.667Z,2.10
2023-01-18T05:28:57.294Z,2.10
2023-01-18T05:31:24.992Z,2.10
2023-01-18T05:33:52.218Z,2.10
2023-01-18T05:36:19.214Z,2.10
2023-01-18T05:38:46.944Z,2.10
2023-01-18T05:41:13.931Z,2.10
2023-01-18T05:43:41.376Z,2.10
2023-01-18T05:46:08.605Z,2.10
2023-01-18T05:48:35.936Z,2.10
2023-01-18T05:51:08.779Z,2.20
2023-01-18T05:53:35.982Z,2.10
2023-01-18T05:56:08.139Z,2.10
2023-01-18T05:58:35.555Z,2.10
2023-01-18T06:01:02.623Z,2.10
2023-01-18T06:03:29.740Z,2.20
2023-01-18T06:05:57.884Z,2.20
2023-01-18T06:08:25.176Z,2.20
2023-01-18T06:10:56.223Z,2.20
2023-01-18T06:13:24.326Z,2.20
2023-01-18T06:15:52.090Z,2.20
2023-01-18T06:18:19.229Z,2.20
2023-01-18T06:20:46.363Z,2.20
2023-01-18T06:23:13.475Z,2.20
2023-01-18T06:25:40.663Z,2.20
2023-01-18T06:28:07.624Z,2.30
2023-01-18T06:30:34.663Z,2.30
2023-01-18T06:33:06.961Z,2.30
2023-01-18T06:35:34.569Z,2.30
2023-01-18T06:38:02.823Z,2.30
2023-01-18T06:40:30.195Z,2.30
2023-01-18T06:42:57.913Z,2.40
2023-01-18T06:45:26.010Z,2.30
2023-01-18T06:47:53.586Z,2.40
2023-01-18T06:50:21.029Z,2.40
2023-01-18T06:52:48.246Z,2.40
2023-01-18T06:55:15.809Z,2.40
2023-01-18T06:57:43.057Z,2.40
2023-01-18T07:00:12.140Z,2.40
2023-01-18T07:02:39.347Z,2.40
2023-01-18T07:05:06.854Z,2.40
2023-01-18T07:07:33.936Z,2.30
2023-01-18T07:10:01.017Z,2.30
2023-01-18T07:12:28.122Z,2.30
2023-01-18T07:14:55.153Z,2.20
2023-01-18T07:17:22.149Z,2.20
2023-01-18T07:19:49.210Z,2.20
2023-01-18T07:22:16.296Z,2.30
2023-01-18T07:24:43.392Z,2.30
2023-01-18T07:27:10.833Z,2.30
2023-01-18T07:29:37.853Z,2.30
2023-01-18T07:32:05.112Z,2.30
2023-01-18T07:34:32.319Z,2.30
2023-01-18T07:36:59.326Z,2.30
2023-01-18T07:39:26.266Z,2.30
2023-01-18T07:41:53.402Z,2.30
2023-01-18T07:44:20.388Z,2.40
2023-01-18T07:46:47.443Z,2.40
2023-01-18T07:49:15.639Z,2.30
2023-01-18T07:51:42.778Z,2.30
2023-01-18T07:54:09.835Z,2.30
2023-01-18T07:56:37.755Z,2.30
2023-01-18T07:59:04.840Z,2.30
2023-01-18T08:01:31.986Z,2.30
2023-01-18T08:03:59.393Z,2.30
2023-01-18T08:06:27.330Z,2.30
2023-01-18T08:08:57.325Z,2.30
2023-01-18T08:11:24.691Z,2.40
2023-01-18T08:13:52.958Z,2.40
2023-01-18T08:16:20.184Z,2.40
2023-01-18T08:18:50.173Z,2.40
2023-01-18T08:21:17.614Z,2.40
2023-01-18T08:23:44.693Z,2.40
2023-01-18T08:26:13.798Z,2.50
2023-01-18T08:28:41.779Z,2.50
2023-01-18T08:31:15.562Z,2.40
2023-01-18T08:33:47.604Z,2.40
2023-01-18T08:36:21.585Z,2.40
2023-01-18T08:38:50.861Z,2.40
2023-01-18T08:41:19.159Z,2.20
2023-01-18T08:43:50.981Z,2.20
2023-01-18T08:46:18.688Z,2.10
2023-01-18T08:48:48.612Z,2.10
2023-01-18T08:51:18.436Z,2.10
2023-01-18T08:53:46.850Z,2.10
2023-01-18T08:56:13.914Z,2.00
2023-01-18T08:58:40.983Z,2.20
2023-01-18T09:01:09.841Z,2.20
2023-01-18T09:03:37.816Z,2.10
2023-01-18T09:06:08.230Z,2.10
2023-01-18T09:08:36.009Z,2.00
2023-01-18T09:11:05.271Z,2.00
2023-01-18T09:13:32.683Z,2.10
2023-01-18T09:16:01.736Z,2.00
2023-01-18T09:18:30.380Z,2.10
2023-01-18T09:20:59.193Z,2.20
2023-01-18T09:23:26.435Z,2.30
2023-01-18T09:26:05.478Z,2.30
2023-01-18T09:28:33.594Z,2.30
2023-01-18T09:31:02.554Z,2.30
2023-01-18T09:33:37.487Z,2.30
2023-01-18T09:36:10.429Z,2.30
2023-01-18T09:38:38.929Z,2.20
2023-01-18T09:41:14.902Z,2.30
2023-01-18T09:43:51.066Z,2.30
2023-01-18T09:46:23.605Z,2.40
2023-01-18T09:49:00.333Z,2.40
2023-01-18T09:52:08.943Z,2.40
2023-01-18T09:54:54.014Z,2.40
2023-01-18T09:57:32.280Z,2.30
2023-01-18T10:00:01.377Z,2.30
2023-01-18T10:02:38.367Z,2.40
2023-01-18T10:05:24.900Z,2.40
2023-01-18T10:08:02.583Z,2.30
2023-01-18T10:10:44.149Z,2.40
2023-01-18T10:13:42.976Z,2.50
2023-01-18T10:16:14.847Z,2.40
2023-01-18T10:18:49.753Z,2.40
2023-01-18T10:21:44.355Z,2.50
2023-01-18T10:24:30.770Z,2.50
2023-01-18T10:27:16.633Z,2.50
2023-01-18T10:30:00.716Z,2.50
2023-01-18T10:32:29.743Z,2.60
2023-01-18T10:34:58.872Z,2.50
2023-01-18T10:37:49.119Z,2.60
2023-01-18T10:40:16.384Z,2.60
2023-01-18T10:42:48.493Z,2.70
2023-01-18T10:45:22.184Z,2.70
2023-01-18T10:47:50.557Z,2.80
2023-01-18T10:50:33.456Z,2.90
2023-01-18T10:53:20.236Z,3.00
2023-01-18T10:56:12.744Z,3.00
2023-01-18T10:58:54.599Z,3.00
2023-01-18T11:01:29.129Z,3.00
2023-01-18T11:04:08.257Z,3.00
2023-01-18T11:06:47.338Z,3.10
2023-01-18T11:09:39.229Z,3.20
2023-01-18T11:12:35.005Z,3.10
2023-01-18T11:15:14.489Z,3.10
2023-01-18T11:17:54.604Z,3.00
2023-01-18T11:20:34.036Z,3.00
2023-01-18T11:23:06.316Z,3.10
2023-01-18T11:26:01.416Z,3.10
2023-01-18T11:28:59.112Z,3.10
2023-01-18T11:31:46.531Z,3.20
2023-01-18T11:34:28.225Z,3.20
2023-01-18T11:36:57.381Z,3.20
2023-01-18T11:39:30.475Z,3.30
2023-01-18T11:42:24.984Z,3.30
2023-01-18T11:45:20.564Z,3.30
2023-01-18T11:48:15.849Z,3.30
2023-01-18T11:51:07.330Z,3.40
2023-01-18T11:53:51.053Z,3.40
2023-01-18T11:56:27.171Z,3.50
2023-01-18T11:58:55.247Z,3.50
2023-01-18T12:01:48.240Z,3.60
2023-01-18T12:04:21.229Z,3.70
2023-01-18T12:07:11.879Z,3.70
2023-01-18T12:09:44.934Z,3.70
2023-01-18T12:12:21.455Z,3.70
2023-01-18T12:15:20.907Z,3.70
2023-01-18T12:18:12.854Z,3.90
2023-01-18T12:21:00.170Z,4.10
2023-01-18T12:23:30.340Z,4.10
2023-01-18T12:26:31.634Z,4.10
2023-01-18T12:29:04.787Z,4.00
2023-01-18T12:31:50.808Z,4.00
2023-01-18T12:34:23.637Z,4.00
2023-01-18T12:37:03.006Z,4.00
2023-01-18T12:39:48.570Z,4.00
2023-01-18T12:42:54.201Z,4.00
2023-01-18T12:45:40.393Z,4.00
2023-01-18T12:48:28.412Z,4.10
2023-01-18T12:50:56.997Z,4.10
2023-01-18T12:53:31.283Z,4.00
2023-01-18T12:56:04.110Z,4.20
2023-01-18T12:58:32.008Z,4.20
2023-01-18T13:01:04.411Z,4.30
2023-01-18T13:03:39.414Z,4.30
2023-01-18T13:06:06.795Z,4.20
2023-01-18T13:08:40.161Z,4.10
2023-01-18T13:11:12.329Z,4.10
2023-01-18T13:13:41.885Z,4.10
2023-01-18T13:16:10.131Z,4.10
2023-01-18T13:18:50.026Z,4.10
2023-01-18T13:21:44.408Z,4.10
2023-01-18T13:24:19.211Z,4.10
2023-01-18T13:26:46.917Z,4.00
2023-01-18T13:29:14.032Z,4.00
2023-01-18T13:31:41.100Z,4.00
2023-01-18T13:34:20.367Z,4.00
2023-01-18T13:36:47.401Z,4.00
2023-01-18T13:39:17.291Z,4.10
2023-01-18T13:42:02.493Z,4.10
2023-01-18T13:44:38.963Z,4.10
2023-01-18T13:47:39.558Z,4.00
2023-01-18T13:50:40.134Z,4.00
2023-01-18T13:53:16.017Z,4.00
2023-01-18T13:55:54.725Z,3.90
2023-01-18T13:58:26.578Z,3.90
2023-01-18T14:00:55.835Z,3.80
2023-01-18T14:03:27.685Z,3.80
2023-01-18T14:05:59.753Z,3.80
2023-01-18T14:08:31.501Z,3.80
2023-01-18T14:11:06.693Z,3.90
2023-01-18T14:13:45.821Z,3.90
2023-01-18T14:16:22.119Z,3.90
2023-01-18T14:19:11.116Z,3.90
2023-01-18T14:22:06.369Z,3.90
2023-01-18T14:25:04.990Z,3.90
2023-01-18T14:27:38.955Z,3.90
2023-01-18T14:30:11.586Z,3.90
2023-01-18T14:32:44.856Z,3.90
2023-01-18T14:35:25.782Z,4.00
2023-01-18T14:38:16.790Z,4.00
2023-01-18T14:40:48.382Z,4.10
2023-01-18T14:43:21.991Z,4.00
2023-01-18T14:46:00.479Z,4.10
2023-01-18T14:48:34.623Z,4.10
2023-01-18T14:51:05.088Z,4.10
2023-01-18T14:53:36.131Z,4.10
2023-01-18T14:56:09.032Z,4.10
2023-01-18T14:58:42.689Z,4.10
2023-01-18T15:01:27.238Z,4.10
2023-01-18T15:03:56.451Z,4.20
2023-01-18T15:06:46.421Z,4.10
2023-01-18T15:09:13.935Z,4.10
2023-01-18T15:11:43.190Z,4.20
2023-01-18T15:14:18.519Z,4.20
2023-01-18T15:16:47.924Z,4.20
2023-01-18T15:19:19.323Z,4.20
2023-01-18T15:21:46.993Z,4.10
2023-01-18T15:24:18.375Z,4.10
2023-01-18T15:26:57.082Z,4.10
2023-01-18T15:29:27.586Z,4.00
2023-01-18T15:32:02.921Z,4.00
2023-01-18T15:34:33.399Z,3.90
2023-01-18T15:37:01.902Z,3.90
2023-01-18T15:39:29.280Z,3.90
2023-01-18T15:41:57.156Z,3.80
2023-01-18T15:44:41.086Z,3.80
2023-01-18T15:47:37.774Z,3.70
2023-01-18T15:50:16.667Z,3.70
2023-01-18T15:52:53.947Z,3.70
2023-01-18T15:55:32.430Z,3.70
2023-01-18T15:58:01.404Z,3.70
2023-01-18T16:00:38.116Z,3.60
2023-01-18T16:03:29.856Z,3.60
2023-01-18T16:06:20.745Z,3.60
2023-01-18T16:08:56.909Z,3.50
2023-01-18T16:11:43.162Z,3.40
2023-01-18T16:14:46.239Z,3.30
2023-01-18T16:17:23.452Z,3.30
2023-01-18T16:19:53.748Z,3.20
2023-01-18T16:22:36.491Z,3.20
2023-01-18T16:25:16.185Z,3.10
2023-01-18T16:27:49.558Z,3.10
2023-01-18T16:30:20.903Z,3.10
2023-01-18T16:32:48.426Z,3.10
2023-01-18T16:35:21.860Z,3.20
2023-01-18T16:37:49.844Z,3.20
2023-01-18T16:40:22.509Z,3.10
2023-01-18T16:43:03.195Z,3.10
2023-01-18T16:45:33.436Z,3.20
2023-01-18T16:48:01.063Z,3.20
2023-01-18T16:50:28.456Z,3.20
2023-01-18T16:52:56.088Z,3.30
2023-01-18T16:55:23.284Z,3.30
2023-01-18T16:57:56.534Z,3.30
2023-01-18T17:00:27.781Z,3.40
2023-01-18T17:02:55.386Z,3.40
2023-01-18T17:05:22.461Z,3.40
2023-01-18T17:07:50.810Z,3.40
2023-01-18T17:10:23.548Z,3.50
2023-01-18T17:12:50.594Z,3.50
2023-01-18T17:15:19.925Z,3.60
2023-01-18T17:17:47.783Z,3.50
2023-01-18T17:20:24.621Z,3.60
2023-01-18T17:22:55.114Z,3.50
2023-01-18T17:25:23.969Z,3.50
2023-01-18T17:27:51.057Z,3.50
2023-01-18T17:30:21.708Z,3.40
2023-01-18T17:32:50.039Z,3.40
2023-01-18T17:35:21.779Z,3.40
2023-01-18T17:37:54.399Z,3.40
2023-01-18T17:40:39.288Z,3.50
2023-01-18T17:43:13.644Z,3.50
2023-01-18T17:45:43.963Z,3.50
2023-01-18T17:48:13.852Z,3.50
2023-01-18T17:50:41.189Z,3.60
2023-01-18T17:53:09.073Z,3.60
2023-01-18T17:55:36.363Z,3.60
2023-01-18T17:58:03.711Z,3.50
2023-01-18T18:00:30.728Z,3.50
2023-01-18T18:02:58.521Z,3.50
2023-01-18T18:05:27.065Z,3.40
2023-01-18T18:07:54.022Z,3.40
2023-01-18T18:10:21.068Z,3.40
2023-01-18T18:12:48.074Z,3.40
2023-01-18T18:15:15.471Z,3.30
2023-01-18T18:17:42.781Z,3.40
2023-01-18T18:20:10.934Z,3.40
2023-01-18T18:22:38.516Z,3.50
2023-01-18T18:25:07.338Z,3.50
2023-01-18T18:27:45.396Z,3.50
2023-01-18T18:30:13.340Z,3.50
2023-01-18T18:32:40.352Z,3.50
2023-01-18T18:35:23.005Z,3.50
2023-01-18T18:37:51.654Z,3.50
2023-01-18T18:40:19.411Z,3.60
2023-01-18T18:42:56.388Z,3.60
2023-01-18T18:45:28.013Z,3.60
2023-01-18T18:47:55.257Z,3.60
2023-01-18T18:50:22.286Z,3.60
2023-01-18T18:52:49.371Z,3.60
2023-01-18T18:55:16.892Z,3.60
2023-01-18T18:57:43.888Z,3.60
2023-01-18T19:00:11.668Z,3.60
2023-01-18T19:02:38.807Z,3.50
2023-01-18T19:05:06.413Z,3.50
2023-01-18T19:07:37.341Z,3.50
2023-01-18T19:10:06.392Z,3.40
2023-01-18T19:12:33.876Z,3.40
2023-01-18T19:15:01.090Z,3.40
2023-01-18T19:17:31.083Z,3.40
2023-01-18T19:19:58.949Z,3.30
2023-01-18T19:22:26.340Z,3.30
2023-01-18T19:24:53.432Z,3.30
2023-01-18T19:27:21.659Z,3.30
2023-01-18T19:29:48.765Z,3.30
2023-01-18T19:32:16.166Z,3.30
2023-01-18T19:34:43.326Z,3.30
2023-01-18T19:37:10.290Z,3.30
2023-01-18T19:39:37.330Z,3.30
2023-01-18T19:42:04.568Z,3.20
2023-01-18T19:44:31.663Z,3.30
2023-01-18T19:46:58.881Z,3.30
2023-01-18T19:49:26.124Z,3.20
2023-01-18T19:51:54.532Z,3.20
2023-01-18T19:54:22.168Z,3.20
2023-01-18T19:56:49.652Z,3.10
2023-01-18T19:59:16.880Z,3.10
2023-01-18T20:01:45.047Z,3.00
2023-01-18T20:04:13.544Z,3.00
2023-01-18T20:06:43.462Z,3.00
2023-01-18T20:09:19.484Z,3.00
2023-01-18T20:11:47.238Z,3.00
2023-01-18T20:14:14.657Z,3.00
2023-01-18T20:16:44.521Z,3.10
2023-01-18T20:19:14.061Z,3.00
2023-01-18T20:21:41.380Z,3.10
2023-01-18T20:24:09.405Z,3.20
2023-01-18T20:26:40.029Z,3.30
2023-01-18T20:29:08.307Z,3.30
2023-01-18T20:31:37.294Z,3.30
2023-01-18T20:34:05.888Z,3.30
2023-01-18T20:36:36.771Z,3.30
2023-01-18T20:39:05.638Z,3.30
2023-01-18T20:41:32.689Z,3.30
2023-01-18T20:43:59.984Z,3.30
2023-01-18T20:46:27.086Z,3.20
2023-01-18T20:48:54.188Z,3.10
2023-01-18T20:51:21.359Z,3.10
2023-01-18T20:53:48.513Z,3.00
2023-01-18T20:56:28.308Z,3.00
2023-01-18T20:58:56.199Z,3.00
2023-01-18T21:01:23.318Z,2.90
2023-01-18T21:03:56.608Z,2.90
2023-01-18T21:06:23.748Z,2.90
2023-01-18T21:08:55.959Z,2.90
2023-01-18T21:11:25.258Z,3.00
2023-01-18T21:13:56.964Z,3.00
2023-01-18T21:16:24.631Z,3.10
2023-01-18T21:18:56.342Z,3.10
2023-01-18T21:21:23.903Z,3.10
2023-01-18T21:23:51.059Z,3.20
2023-01-18T21:26:18.108Z,3.20
2023-01-18T21:28:45.679Z,3.20
2023-01-18T21:31:12.634Z,3.20
2023-01-18T21:33:39.764Z,3.20
2023-01-18T21:36:09.521Z,3.20
2023-01-18T21:38:36.719Z,3.10
2023-01-18T21:41:22.820Z,3.10
2023-01-18T21:44:10.734Z,2.90
2023-01-18T21:46:38.672Z,2.90
2023-01-18T21:49:42.908Z,2.90
2023-01-18T21:52:35.388Z,2.90
2023-01-18T21:55:02.639Z,2.80
2023-01-18T21:57:29.635Z,2.80
2023-01-18T21:59:56.603Z,2.80
2023-01-18T22:02:23.772Z,2.80
2023-01-18T22:05:00.241Z,2.80
2023-01-18T22:07:33.199Z,2.80
2023-01-18T22:10:06.009Z,2.80
2023-01-18T22:12:35.532Z,2.80
2023-01-18T22:15:06.460Z,2.80
2023-01-18T22:17:33.537Z,2.80
2023-01-18T22:20:01.761Z,2.80
2023-01-18T22:22:29.011Z,2.80
2023-01-18T22:24:57.174Z,2.80
2023-01-18T22:27:24.327Z,2.80
2023-01-18T22:29:51.381Z,2.70
2023-01-18T22:32:18.497Z,2.70
2023-01-18T22:34:45.501Z,2.60
2023-01-18T22:37:12.576Z,2.60
2023-01-18T22:39:39.733Z,2.60
2023-01-18T22:42:06.773Z,2.50
2023-01-18T22:44:34.031Z,2.50
2023-01-18T22:47:01.110Z,2.50
2023-01-18T22:49:28.119Z,2.60
2023-01-18T22:51:55.131Z,2.70
2023-01-18T22:54:23.050Z,2.70
2023-01-18T22:56:50.404Z,2.80
2023-01-18T22:59:17.859Z,2.80
2023-01-18T23:01:45.257Z,2.70
2023-01-18T23:04:12.431Z,2.70
2023-01-18T23:06:42.554Z,2.70
2023-01-18T23:09:10.534Z,2.70
2023-01-18T23:11:38.290Z,2.70
2023-01-18T23:14:24.259Z,2.70
2023-01-18T23:17:10.069Z,2.70
2023-01-18T23:19:37.123Z,2.70
2023-01-18T23:22:07.526Z,2.60
2023-01-18T23:24:36.471Z,2.70
2023-01-18T23:27:06.666Z,2.70
2023-01-18T23:29:33.722Z,2.70
2023-01-18T23:32:00.924Z,2.70
2023-01-18T23:34:27.980Z,2.70
2023-01-18T23:36:55.356Z,2.70
2023-01-18T23:39:41.206Z,2.60
2023-01-18T23:42:26.622Z,2.60
2023-01-18T23:45:12.503Z,2.60
2023-01-18T23:47:58.751Z,2.60
2023-01-18T23:50:44.386Z,2.60
2023-01-18T23:53:31.201Z,2.70
2023-01-18T23:55:59.004Z,2.60
2023-01-18T23:58:26.665Z,2.60
